N308SW KLUK-KSYI
Flight info
| Callsign | N308SW |
|---|---|
| Flight time | N/A |
| Altitude | 10000 |
| Route | SILKS |
| Aircraft | DA42/L-SBDGRY/S |
Departure
| Time | 2026-04-28 13:56 |
|---|---|
| Airport | Cincinnati Municipal Airport Lunken Field (KLUK) |
Arrival
| Time | N/A |
|---|---|
| Airport | Bomar Field / Shelbyville Municipal Airport (KSYI) |
| Time | Latitude | Longitude | Altitude | Speed | Heading |
|---|---|---|---|---|---|
| 2026-04-28 13:46 | 39.10540 | -84.42659 | 479 ft | 0 kts | 245° |
| 2026-04-28 13:51 | 39.10535 | -84.42666 | 479 ft | 3 kts | 200° |
| 2026-04-28 13:51 | 39.10508 | -84.42650 | 479 ft | 5 kts | 153° |
| 2026-04-28 13:51 | 39.10473 | -84.42628 | 479 ft | 5 kts | 153° |
| 2026-04-28 13:51 | 39.10452 | -84.42591 | 479 ft | 6 kts | 59° |
| 2026-04-28 13:52 | 39.10476 | -84.42529 | 478 ft | 9 kts | 65° |
| 2026-04-28 13:52 | 39.10505 | -84.42451 | 477 ft | 10 kts | 52° |
| 2026-04-28 13:52 | 39.10545 | -84.42367 | 476 ft | 11 kts | 63° |
| 2026-04-28 13:52 | 39.10583 | -84.42269 | 475 ft | 12 kts | 63° |
| 2026-04-28 13:53 | 39.10628 | -84.42164 | 473 ft | 13 kts | 62° |
| 2026-04-28 13:53 | 39.10674 | -84.42050 | 472 ft | 14 kts | 65° |
| 2026-04-28 13:53 | 39.10722 | -84.41936 | 471 ft | 14 kts | 60° |
| 2026-04-28 13:53 | 39.10778 | -84.41801 | 470 ft | 20 kts | 61° |
| 2026-04-28 13:54 | 39.10841 | -84.41650 | 470 ft | 18 kts | 62° |
| 2026-04-28 13:54 | 39.10897 | -84.41512 | 470 ft | 16 kts | 62° |
| 2026-04-28 13:54 | 39.10952 | -84.41384 | 470 ft | 15 kts | 63° |
| 2026-04-28 13:54 | 39.10934 | -84.41290 | 471 ft | 12 kts | 152° |
| 2026-04-28 13:55 | 39.10859 | -84.41237 | 471 ft | 12 kts | 154° |
| 2026-04-28 13:55 | 39.10782 | -84.41205 | 471 ft | 11 kts | 201° |
| 2026-04-28 13:55 | 39.10533 | -84.41326 | 473 ft | 69 kts | 201° |
| 2026-04-28 13:55 | 39.09998 | -84.41587 | 626 ft | 82 kts | 203° |
| 2026-04-28 13:56 | 39.09491 | -84.41840 | 927 ft | 81 kts | 205° |
| 2026-04-28 13:56 | 39.08937 | -84.42139 | 1211 ft | 87 kts | 208° |
| 2026-04-28 13:56 | 39.08402 | -84.42423 | 1625 ft | 81 kts | 209° |
| 2026-04-28 13:56 | 39.07908 | -84.42693 | 1973 ft | 80 kts | 205° |
| 2026-04-28 13:57 | 39.07398 | -84.42933 | 2313 ft | 79 kts | 207° |
| 2026-04-28 13:57 | 39.06869 | -84.43179 | 2649 ft | 81 kts | 208° |
| 2026-04-28 13:57 | 39.06344 | -84.43409 | 2959 ft | 81 kts | 208° |
| 2026-04-28 13:57 | 39.05812 | -84.43641 | 3248 ft | 81 kts | 210° |
| 2026-04-28 13:58 | 39.05276 | -84.43891 | 3559 ft | 82 kts | 211° |
| 2026-04-28 13:58 | 39.04742 | -84.44125 | 3868 ft | 83 kts | 212° |
| 2026-04-28 13:58 | 39.04202 | -84.44348 | 4194 ft | 82 kts | 211° |
| 2026-04-28 13:58 | 39.03667 | -84.44592 | 4495 ft | 81 kts | 216° |
| 2026-04-28 13:59 | 39.03153 | -84.44874 | 4819 ft | 81 kts | 217° |
| 2026-04-28 13:59 | 39.02638 | -84.45152 | 5119 ft | 82 kts | 217° |
| 2026-04-28 13:59 | 39.02116 | -84.45436 | 5446 ft | 81 kts | 217° |
| 2026-04-28 13:59 | 39.01594 | -84.45718 | 5760 ft | 81 kts | 218° |
| 2026-04-28 14:00 | 39.01065 | -84.45986 | 6061 ft | 83 kts | 217° |
| 2026-04-28 14:00 | 39.00528 | -84.46261 | 6362 ft | 84 kts | 218° |
| 2026-04-28 14:00 | 38.99967 | -84.46536 | 6599 ft | 92 kts | 218° |
| 2026-04-28 14:00 | 38.99336 | -84.46886 | 6776 ft | 104 kts | 218° |
| 2026-04-28 14:01 | 38.98661 | -84.47283 | 7043 ft | 106 kts | 218° |
| 2026-04-28 14:01 | 38.97980 | -84.47674 | 7296 ft | 109 kts | 219° |
| 2026-04-28 14:01 | 38.97287 | -84.48074 | 7567 ft | 110 kts | 218° |
| 2026-04-28 14:01 | 38.96610 | -84.48504 | 7855 ft | 107 kts | 221° |
| 2026-04-28 14:02 | 38.95945 | -84.48965 | 8104 ft | 110 kts | 222° |
| 2026-04-28 14:02 | 38.95273 | -84.49432 | 8373 ft | 111 kts | 222° |
| 2026-04-28 14:02 | 38.94600 | -84.49911 | 8644 ft | 111 kts | 222° |
| 2026-04-28 14:02 | 38.93918 | -84.50394 | 8909 ft | 112 kts | 222° |
| 2026-04-28 14:03 | 38.93243 | -84.50873 | 9176 ft | 113 kts | 223° |
| 2026-04-28 14:03 | 38.92517 | -84.51292 | 9434 ft | 118 kts | 216° |
| 2026-04-28 14:03 | 38.91754 | -84.51670 | 9709 ft | 117 kts | 216° |
| 2026-04-28 14:03 | 38.90990 | -84.52062 | 9949 ft | 120 kts | 216° |
| 2026-04-28 14:04 | 38.90177 | -84.52492 | 10006 ft | 135 kts | 215° |
| 2026-04-28 14:04 | 38.89242 | -84.52983 | 10021 ft | 147 kts | 213° |
| 2026-04-28 14:04 | 38.88263 | -84.53495 | 10010 ft | 155 kts | 213° |
| 2026-04-28 14:04 | 38.87259 | -84.54017 | 10007 ft | 158 kts | 213° |
| 2026-04-28 14:05 | 38.86228 | -84.54552 | 10008 ft | 159 kts | 213° |
| 2026-04-28 14:05 | 38.85198 | -84.55089 | 10006 ft | 159 kts | 213° |
| 2026-04-28 14:05 | 38.84176 | -84.55624 | 10005 ft | 160 kts | 214° |
| 2026-04-28 14:05 | 38.83134 | -84.56171 | 10008 ft | 160 kts | 214° |
| 2026-04-28 14:06 | 38.82114 | -84.56705 | 10003 ft | 160 kts | 213° |
| 2026-04-28 14:06 | 38.81073 | -84.57249 | 10003 ft | 160 kts | 214° |
| 2026-04-28 14:06 | 38.80047 | -84.57785 | 10004 ft | 160 kts | 213° |
| 2026-04-28 14:06 | 38.79009 | -84.58328 | 10008 ft | 160 kts | 214° |
| 2026-04-28 14:07 | 38.77979 | -84.58868 | 10008 ft | 160 kts | 214° |
| 2026-04-28 14:07 | 38.76937 | -84.59412 | 10010 ft | 161 kts | 214° |
| 2026-04-28 14:07 | 38.75900 | -84.59954 | 10008 ft | 161 kts | 214° |
| 2026-04-28 14:07 | 38.74864 | -84.60497 | 10006 ft | 161 kts | 214° |
| 2026-04-28 14:08 | 38.73826 | -84.61039 | 10008 ft | 161 kts | 214° |
| 2026-04-28 14:08 | 38.72795 | -84.61577 | 10009 ft | 161 kts | 213° |
| 2026-04-28 14:08 | 38.71757 | -84.62117 | 10009 ft | 160 kts | 214° |
| 2026-04-28 14:08 | 38.71059 | -84.62482 | 10006 ft | 160 kts | 214° |
| 2026-04-28 14:09 | 38.69682 | -84.63200 | 10007 ft | 160 kts | 213° |
| 2026-04-28 14:09 | 38.68650 | -84.63740 | 10009 ft | 161 kts | 213° |
| 2026-04-28 14:09 | 38.67607 | -84.64281 | 10007 ft | 160 kts | 214° |
| 2026-04-28 14:09 | 38.66579 | -84.64819 | 10007 ft | 160 kts | 214° |
| 2026-04-28 14:10 | 38.65532 | -84.65365 | 10017 ft | 160 kts | 213° |
| 2026-04-28 14:10 | 38.64506 | -84.65900 | 10016 ft | 161 kts | 214° |
| 2026-04-28 14:10 | 38.63462 | -84.66443 | 10019 ft | 161 kts | 213° |
| 2026-04-28 14:10 | 38.62408 | -84.66995 | 10017 ft | 162 kts | 214° |
| 2026-04-28 14:11 | 38.61372 | -84.67533 | 10014 ft | 162 kts | 213° |
| 2026-04-28 14:11 | 38.60326 | -84.68078 | 10015 ft | 162 kts | 213° |
| 2026-04-28 14:11 | 38.59277 | -84.68623 | 10014 ft | 162 kts | 214° |
| 2026-04-28 14:11 | 38.58231 | -84.69164 | 10015 ft | 162 kts | 213° |
| 2026-04-28 14:12 | 38.57173 | -84.69718 | 10018 ft | 163 kts | 213° |
| 2026-04-28 14:12 | 38.56135 | -84.70255 | 10016 ft | 163 kts | 213° |
| 2026-04-28 14:12 | 38.55085 | -84.70802 | 10017 ft | 163 kts | 213° |
| 2026-04-28 14:12 | 38.54023 | -84.71352 | 10015 ft | 163 kts | 213° |
| 2026-04-28 14:13 | 38.52977 | -84.71897 | 10015 ft | 163 kts | 213° |
| 2026-04-28 14:13 | 38.51924 | -84.72443 | 10015 ft | 163 kts | 213° |
| 2026-04-28 14:13 | 38.50870 | -84.72988 | 10015 ft | 163 kts | 213° |
| 2026-04-28 14:13 | 38.49827 | -84.73529 | 10018 ft | 163 kts | 214° |
| 2026-04-28 14:14 | 38.48777 | -84.74071 | 10017 ft | 163 kts | 214° |
| 2026-04-28 14:14 | 38.47727 | -84.74621 | 10017 ft | 163 kts | 214° |
| 2026-04-28 14:14 | 38.46679 | -84.75188 | 10017 ft | 159 kts | 220° |
| 2026-04-28 14:14 | 38.45768 | -84.75928 | 10016 ft | 156 kts | 224° |
| 2026-04-28 14:15 | 38.44865 | -84.76698 | 10015 ft | 156 kts | 224° |
| 2026-04-28 14:15 | 38.43960 | -84.77477 | 10012 ft | 156 kts | 225° |
| 2026-04-28 14:15 | 38.43055 | -84.78246 | 10013 ft | 156 kts | 225° |
| 2026-04-28 14:15 | 38.42153 | -84.79021 | 10013 ft | 156 kts | 225° |
| 2026-04-28 14:16 | 38.41253 | -84.79788 | 10015 ft | 156 kts | 225° |
| 2026-04-28 14:16 | 38.40345 | -84.80566 | 10016 ft | 157 kts | 225° |
| 2026-04-28 14:16 | 38.39445 | -84.81335 | 10018 ft | 156 kts | 225° |
| 2026-04-28 14:16 | 38.38531 | -84.82113 | 10020 ft | 157 kts | 225° |
| 2026-04-28 14:17 | 38.37619 | -84.82890 | 10009 ft | 157 kts | 225° |
| 2026-04-28 14:17 | 38.36715 | -84.83656 | 10002 ft | 157 kts | 225° |
| 2026-04-28 14:17 | 38.35805 | -84.84435 | 9999 ft | 157 kts | 225° |
| 2026-04-28 14:17 | 38.34900 | -84.85207 | 9994 ft | 157 kts | 225° |
| 2026-04-28 14:18 | 38.33995 | -84.85975 | 9998 ft | 157 kts | 225° |
| 2026-04-28 14:18 | 38.33088 | -84.86746 | 10000 ft | 156 kts | 224° |
| 2026-04-28 14:18 | 38.32178 | -84.87521 | 10002 ft | 156 kts | 225° |
| 2026-04-28 14:18 | 38.31267 | -84.88292 | 10002 ft | 156 kts | 224° |
| 2026-04-28 14:19 | 38.30376 | -84.89055 | 10004 ft | 156 kts | 225° |
| 2026-04-28 14:19 | 38.29470 | -84.89823 | 10005 ft | 156 kts | 225° |
| 2026-04-28 14:19 | 38.28558 | -84.90594 | 10003 ft | 157 kts | 225° |
| 2026-04-28 14:19 | 38.27655 | -84.91362 | 10001 ft | 156 kts | 225° |
| 2026-04-28 14:20 | 38.26743 | -84.92136 | 10004 ft | 156 kts | 225° |
| 2026-04-28 14:20 | 38.25837 | -84.92904 | 10005 ft | 156 kts | 225° |
| 2026-04-28 14:20 | 38.24943 | -84.93665 | 10002 ft | 156 kts | 226° |
| 2026-04-28 14:20 | 38.24031 | -84.94437 | 10001 ft | 156 kts | 225° |
| 2026-04-28 14:21 | 38.23132 | -84.95202 | 10007 ft | 156 kts | 226° |
| 2026-04-28 14:21 | 38.22236 | -84.95963 | 10007 ft | 156 kts | 225° |
| 2026-04-28 14:21 | 38.21325 | -84.96732 | 10007 ft | 156 kts | 225° |
| 2026-04-28 14:21 | 38.20422 | -84.97498 | 10005 ft | 157 kts | 226° |
| 2026-04-28 14:22 | 38.19514 | -84.98266 | 10006 ft | 156 kts | 225° |
| 2026-04-28 14:22 | 38.18598 | -84.99043 | 10006 ft | 157 kts | 225° |
| 2026-04-28 14:22 | 38.17693 | -84.99807 | 10004 ft | 157 kts | 226° |
| 2026-04-28 14:22 | 38.16781 | -85.00578 | 10001 ft | 156 kts | 226° |
| 2026-04-28 14:23 | 38.15881 | -85.01343 | 10002 ft | 157 kts | 225° |
| 2026-04-28 14:23 | 38.14970 | -85.02110 | 10002 ft | 157 kts | 225° |
| 2026-04-28 14:23 | 38.14062 | -85.02882 | 10002 ft | 157 kts | 225° |
| 2026-04-28 14:23 | 38.13153 | -85.03647 | 10001 ft | 157 kts | 225° |
| 2026-04-28 14:24 | 38.12246 | -85.04412 | 9999 ft | 156 kts | 225° |
| 2026-04-28 14:24 | 38.11337 | -85.05179 | 10000 ft | 157 kts | 225° |
| 2026-04-28 14:24 | 38.10434 | -85.05943 | 9999 ft | 157 kts | 226° |
| 2026-04-28 14:24 | 38.09526 | -85.06711 | 9997 ft | 157 kts | 225° |
| 2026-04-28 14:25 | 38.08609 | -85.07482 | 9996 ft | 157 kts | 225° |
| 2026-04-28 14:25 | 38.07700 | -85.08251 | 9994 ft | 157 kts | 225° |
| 2026-04-28 14:25 | 38.06779 | -85.09026 | 9996 ft | 158 kts | 226° |
| 2026-04-28 14:25 | 38.05871 | -85.09791 | 9991 ft | 158 kts | 225° |
| 2026-04-28 14:26 | 38.04958 | -85.10561 | 9990 ft | 157 kts | 226° |
| 2026-04-28 14:26 | 38.04039 | -85.11336 | 9987 ft | 157 kts | 226° |
| 2026-04-28 14:26 | 38.03135 | -85.12097 | 9995 ft | 157 kts | 226° |
| 2026-04-28 14:26 | 38.02222 | -85.12865 | 9993 ft | 157 kts | 226° |
| 2026-04-28 14:27 | 38.01313 | -85.13633 | 9989 ft | 157 kts | 225° |
| 2026-04-28 14:27 | 38.00391 | -85.14409 | 9987 ft | 158 kts | 225° |
| 2026-04-28 14:27 | 37.99488 | -85.15168 | 9988 ft | 157 kts | 225° |
| 2026-04-28 14:27 | 37.98568 | -85.15943 | 9989 ft | 157 kts | 225° |
| 2026-04-28 14:28 | 37.97660 | -85.16704 | 9989 ft | 158 kts | 226° |
| 2026-04-28 14:28 | 37.96745 | -85.17471 | 9989 ft | 157 kts | 226° |
| 2026-04-28 14:28 | 37.95834 | -85.18240 | 9989 ft | 158 kts | 225° |
| 2026-04-28 14:28 | 37.94907 | -85.19019 | 9988 ft | 158 kts | 225° |
| 2026-04-28 14:29 | 37.93995 | -85.19783 | 9993 ft | 157 kts | 226° |
| 2026-04-28 14:29 | 37.93082 | -85.20545 | 9997 ft | 157 kts | 225° |
| 2026-04-28 14:29 | 37.92173 | -85.21311 | 9996 ft | 157 kts | 226° |
| 2026-04-28 14:29 | 37.91253 | -85.22085 | 9998 ft | 158 kts | 225° |
| 2026-04-28 14:30 | 37.90345 | -85.22845 | 10001 ft | 157 kts | 225° |
| 2026-04-28 14:30 | 37.89425 | -85.23615 | 10001 ft | 157 kts | 225° |
| 2026-04-28 14:30 | 37.88510 | -85.24385 | 10001 ft | 157 kts | 226° |
| 2026-04-28 14:30 | 37.87603 | -85.25146 | 10000 ft | 158 kts | 225° |
| 2026-04-28 14:31 | 37.86686 | -85.25913 | 9993 ft | 158 kts | 226° |
| 2026-04-28 14:31 | 37.85772 | -85.26677 | 9994 ft | 158 kts | 225° |
| 2026-04-28 14:31 | 37.84846 | -85.27454 | 9994 ft | 158 kts | 225° |
| 2026-04-28 14:31 | 37.83932 | -85.28215 | 9990 ft | 157 kts | 226° |
| 2026-04-28 14:32 | 37.83025 | -85.28978 | 9993 ft | 157 kts | 226° |
| 2026-04-28 14:32 | 37.82102 | -85.29750 | 9995 ft | 157 kts | 225° |
| 2026-04-28 14:32 | 37.81198 | -85.30501 | 9999 ft | 157 kts | 226° |
| 2026-04-28 14:32 | 37.80281 | -85.31272 | 10006 ft | 157 kts | 225° |
| 2026-04-28 14:33 | 37.79371 | -85.32034 | 10000 ft | 157 kts | 225° |
| 2026-04-28 14:33 | 37.78456 | -85.32796 | 10005 ft | 157 kts | 226° |
| 2026-04-28 14:33 | 37.77546 | -85.33557 | 10004 ft | 157 kts | 225° |
| 2026-04-28 14:33 | 37.76633 | -85.34316 | 10009 ft | 157 kts | 225° |
| 2026-04-28 14:34 | 37.74807 | -85.35840 | 10011 ft | 157 kts | 225° |
| 2026-04-28 14:34 | 37.73899 | -85.36601 | 10008 ft | 158 kts | 225° |
| 2026-04-28 14:34 | 37.73286 | -85.37112 | 10006 ft | 158 kts | 225° |
| 2026-04-28 14:35 | 37.72056 | -85.38137 | 10005 ft | 158 kts | 226° |
| 2026-04-28 14:35 | 37.71151 | -85.38892 | 10007 ft | 157 kts | 225° |
| 2026-04-28 14:35 | 37.70224 | -85.39661 | 10010 ft | 157 kts | 225° |
| 2026-04-28 14:35 | 37.69320 | -85.40418 | 10007 ft | 158 kts | 225° |
| 2026-04-28 14:36 | 37.68399 | -85.41182 | 10010 ft | 157 kts | 225° |
| 2026-04-28 14:36 | 37.67485 | -85.41943 | 10006 ft | 158 kts | 225° |
| 2026-04-28 14:36 | 37.66570 | -85.42703 | 10008 ft | 157 kts | 225° |
| 2026-04-28 14:36 | 37.65650 | -85.43469 | 10004 ft | 157 kts | 225° |
| 2026-04-28 14:37 | 37.64739 | -85.44224 | 10004 ft | 157 kts | 225° |
| 2026-04-28 14:37 | 37.63826 | -85.44988 | 10007 ft | 157 kts | 225° |
| 2026-04-28 14:37 | 37.62919 | -85.45740 | 10007 ft | 157 kts | 225° |
| 2026-04-28 14:37 | 37.62004 | -85.46503 | 10010 ft | 157 kts | 225° |
| 2026-04-28 14:38 | 37.61094 | -85.47256 | 10013 ft | 156 kts | 225° |
| 2026-04-28 14:38 | 37.60194 | -85.48005 | 10013 ft | 156 kts | 225° |
| 2026-04-28 14:38 | 37.59268 | -85.48771 | 10012 ft | 157 kts | 225° |
| 2026-04-28 14:38 | 37.58361 | -85.49526 | 10013 ft | 157 kts | 225° |
| 2026-04-28 14:39 | 37.57452 | -85.50281 | 10013 ft | 157 kts | 225° |
| 2026-04-28 14:39 | 37.56530 | -85.51042 | 10010 ft | 157 kts | 225° |
| 2026-04-28 14:39 | 37.55618 | -85.51800 | 10008 ft | 157 kts | 225° |
| 2026-04-28 14:39 | 37.54713 | -85.52553 | 10012 ft | 157 kts | 225° |
| 2026-04-28 14:40 | 37.53793 | -85.53312 | 10016 ft | 157 kts | 225° |
| 2026-04-28 14:40 | 37.53489 | -85.53564 | 10012 ft | 157 kts | 225° |
| 2026-04-28 14:40 | 37.51975 | -85.54818 | 10016 ft | 157 kts | 225° |
| 2026-04-28 14:40 | 37.51062 | -85.55575 | 10020 ft | 157 kts | 225° |
| 2026-04-28 14:41 | 37.50141 | -85.56337 | 10020 ft | 157 kts | 225° |
| 2026-04-28 14:41 | 37.49239 | -85.57085 | 10019 ft | 157 kts | 224° |
| 2026-04-28 14:41 | 37.48314 | -85.57848 | 10011 ft | 157 kts | 225° |
| 2026-04-28 14:41 | 37.47409 | -85.58596 | 10013 ft | 157 kts | 225° |
| 2026-04-28 14:42 | 37.46489 | -85.59357 | 10015 ft | 156 kts | 225° |
| 2026-04-28 14:42 | 37.45581 | -85.60108 | 10017 ft | 156 kts | 225° |
| 2026-04-28 14:42 | 37.44671 | -85.60859 | 10018 ft | 157 kts | 225° |
| 2026-04-28 14:42 | 37.43761 | -85.61610 | 10016 ft | 157 kts | 225° |
| 2026-04-28 14:43 | 37.42845 | -85.62368 | 10015 ft | 157 kts | 225° |
| 2026-04-28 14:43 | 37.41944 | -85.63110 | 10016 ft | 157 kts | 225° |
| 2026-04-28 14:43 | 37.41021 | -85.63872 | 10018 ft | 156 kts | 225° |
| 2026-04-28 14:43 | 37.40107 | -85.64626 | 10017 ft | 157 kts | 225° |
| 2026-04-28 14:44 | 37.39202 | -85.65378 | 10024 ft | 157 kts | 224° |
| 2026-04-28 14:44 | 37.38284 | -85.66133 | 10031 ft | 157 kts | 225° |
| 2026-04-28 14:44 | 37.37363 | -85.66891 | 10027 ft | 158 kts | 224° |
| 2026-04-28 14:44 | 37.36443 | -85.67649 | 10025 ft | 158 kts | 225° |
| 2026-04-28 14:45 | 37.35518 | -85.68411 | 10023 ft | 158 kts | 224° |
| 2026-04-28 14:45 | 37.34600 | -85.69164 | 10021 ft | 159 kts | 225° |
| 2026-04-28 14:45 | 37.33666 | -85.69936 | 10020 ft | 159 kts | 224° |
| 2026-04-28 14:45 | 37.33061 | -85.70434 | 10023 ft | 159 kts | 224° |
| 2026-04-28 14:46 | 37.31825 | -85.71452 | 10025 ft | 159 kts | 225° |
| 2026-04-28 14:46 | 37.30893 | -85.72219 | 10030 ft | 158 kts | 224° |
| 2026-04-28 14:46 | 37.29973 | -85.72975 | 10031 ft | 159 kts | 224° |
| 2026-04-28 14:46 | 37.29040 | -85.73739 | 10029 ft | 159 kts | 225° |
| 2026-04-28 14:47 | 37.28118 | -85.74500 | 10026 ft | 159 kts | 224° |
| 2026-04-28 14:47 | 37.27185 | -85.75264 | 10027 ft | 159 kts | 224° |
| 2026-04-28 14:47 | 37.26269 | -85.76016 | 10031 ft | 159 kts | 224° |
| 2026-04-28 14:47 | 37.25346 | -85.76775 | 10031 ft | 159 kts | 224° |
| 2026-04-28 14:48 | 37.24423 | -85.77535 | 10030 ft | 159 kts | 224° |
| 2026-04-28 14:48 | 37.23489 | -85.78297 | 10031 ft | 159 kts | 224° |
| 2026-04-28 14:48 | 37.22561 | -85.79060 | 10037 ft | 159 kts | 224° |
| 2026-04-28 14:48 | 37.21636 | -85.79818 | 10038 ft | 159 kts | 224° |
| 2026-04-28 14:49 | 37.20703 | -85.80584 | 10039 ft | 158 kts | 224° |
| 2026-04-28 14:49 | 37.19781 | -85.81336 | 10039 ft | 159 kts | 224° |
| 2026-04-28 14:49 | 37.18851 | -85.82102 | 10039 ft | 159 kts | 224° |
| 2026-04-28 14:49 | 37.17926 | -85.82861 | 10041 ft | 159 kts | 224° |
| 2026-04-28 14:50 | 37.17001 | -85.83617 | 10042 ft | 159 kts | 224° |
| 2026-04-28 14:50 | 37.16061 | -85.84386 | 10044 ft | 159 kts | 224° |
| 2026-04-28 14:50 | 37.15139 | -85.85141 | 10042 ft | 159 kts | 224° |
| 2026-04-28 14:50 | 37.14207 | -85.85905 | 10041 ft | 159 kts | 224° |
| 2026-04-28 14:51 | 37.13274 | -85.86665 | 10044 ft | 159 kts | 224° |
| 2026-04-28 14:51 | 37.12352 | -85.87419 | 10043 ft | 159 kts | 224° |
| 2026-04-28 14:51 | 37.11426 | -85.88174 | 10044 ft | 159 kts | 224° |
| 2026-04-28 14:51 | 37.10491 | -85.88939 | 10044 ft | 159 kts | 224° |
| 2026-04-28 14:52 | 37.09560 | -85.89700 | 10044 ft | 159 kts | 224° |
| 2026-04-28 14:52 | 37.08643 | -85.90450 | 10043 ft | 159 kts | 224° |
| 2026-04-28 14:52 | 37.07706 | -85.91217 | 10049 ft | 159 kts | 223° |
| 2026-04-28 14:52 | 37.06781 | -85.91971 | 10050 ft | 159 kts | 224° |
| 2026-04-28 14:53 | 37.05846 | -85.92734 | 10044 ft | 159 kts | 224° |
| 2026-04-28 14:53 | 37.04927 | -85.93484 | 10046 ft | 159 kts | 224° |
| 2026-04-28 14:53 | 37.03987 | -85.94247 | 10047 ft | 159 kts | 224° |
| 2026-04-28 14:53 | 37.03060 | -85.95003 | 10046 ft | 159 kts | 224° |
| 2026-04-28 14:54 | 37.02142 | -85.95752 | 10041 ft | 158 kts | 224° |
| 2026-04-28 14:54 | 37.01211 | -85.96508 | 10044 ft | 158 kts | 224° |
| 2026-04-28 14:54 | 37.00286 | -85.97265 | 10045 ft | 159 kts | 224° |
| 2026-04-28 14:54 | 36.99357 | -85.98023 | 10050 ft | 159 kts | 224° |
| 2026-04-28 14:55 | 36.98432 | -85.98776 | 10051 ft | 159 kts | 224° |
| 2026-04-28 14:55 | 36.97505 | -85.99532 | 10041 ft | 159 kts | 224° |
| 2026-04-28 14:55 | 36.96573 | -86.00288 | 10041 ft | 159 kts | 224° |
| 2026-04-28 14:55 | 36.95647 | -86.01039 | 10042 ft | 159 kts | 224° |
| 2026-04-28 14:56 | 36.94713 | -86.01800 | 10046 ft | 160 kts | 224° |
| 2026-04-28 14:56 | 36.93785 | -86.02556 | 10045 ft | 160 kts | 224° |
| 2026-04-28 14:56 | 36.92845 | -86.03316 | 10045 ft | 160 kts | 224° |
| 2026-04-28 14:56 | 36.91914 | -86.04071 | 10046 ft | 160 kts | 224° |
| 2026-04-28 14:57 | 36.90978 | -86.04833 | 10041 ft | 160 kts | 224° |
| 2026-04-28 14:57 | 36.90355 | -86.05341 | 10041 ft | 160 kts | 224° |
| 2026-04-28 14:57 | 36.89108 | -86.06352 | 10039 ft | 159 kts | 223° |
| 2026-04-28 14:57 | 36.88177 | -86.07106 | 10035 ft | 158 kts | 224° |
| 2026-04-28 14:58 | 36.87258 | -86.07849 | 10032 ft | 158 kts | 224° |
| 2026-04-28 14:58 | 36.86327 | -86.08607 | 10031 ft | 158 kts | 224° |
| 2026-04-28 14:58 | 36.85398 | -86.09359 | 10034 ft | 158 kts | 224° |
| 2026-04-28 14:58 | 36.84474 | -86.10111 | 10035 ft | 158 kts | 224° |
| 2026-04-28 14:59 | 36.83552 | -86.10858 | 10033 ft | 159 kts | 224° |
| 2026-04-28 14:59 | 36.82615 | -86.11614 | 10034 ft | 159 kts | 224° |
| 2026-04-28 14:59 | 36.81690 | -86.12367 | 10036 ft | 159 kts | 223° |
| 2026-04-28 14:59 | 36.80761 | -86.13116 | 10037 ft | 159 kts | 224° |
| 2026-04-28 15:00 | 36.79831 | -86.13869 | 10034 ft | 159 kts | 224° |
| 2026-04-28 15:00 | 36.78908 | -86.14616 | 10033 ft | 159 kts | 225° |
| 2026-04-28 15:00 | 36.77975 | -86.15371 | 10037 ft | 160 kts | 224° |
| 2026-04-28 15:00 | 36.77041 | -86.16124 | 10036 ft | 160 kts | 223° |
| 2026-04-28 15:01 | 36.76100 | -86.16886 | 10039 ft | 161 kts | 224° |
| 2026-04-28 15:01 | 36.75159 | -86.17648 | 10036 ft | 161 kts | 224° |
| 2026-04-28 15:01 | 36.74196 | -86.18386 | 10035 ft | 165 kts | 217° |
| 2026-04-28 15:01 | 36.73141 | -86.18950 | 10040 ft | 166 kts | 214° |
| 2026-04-28 15:02 | 36.72079 | -86.19496 | 10039 ft | 166 kts | 213° |
| 2026-04-28 15:02 | 36.71005 | -86.20053 | 10039 ft | 166 kts | 213° |
| 2026-04-28 15:02 | 36.69930 | -86.20602 | 10043 ft | 167 kts | 213° |
| 2026-04-28 15:02 | 36.68849 | -86.21147 | 10044 ft | 167 kts | 213° |
| 2026-04-28 15:03 | 36.67778 | -86.21696 | 10041 ft | 167 kts | 214° |
| 2026-04-28 15:03 | 36.66700 | -86.22244 | 10039 ft | 167 kts | 213° |
| 2026-04-28 15:03 | 36.65626 | -86.22797 | 10037 ft | 167 kts | 213° |
| 2026-04-28 15:03 | 36.64545 | -86.23351 | 10035 ft | 167 kts | 213° |
| 2026-04-28 15:04 | 36.63476 | -86.23901 | 10040 ft | 167 kts | 213° |
| 2026-04-28 15:04 | 36.62397 | -86.24448 | 10039 ft | 167 kts | 213° |
| 2026-04-28 15:04 | 36.61322 | -86.25004 | 10041 ft | 167 kts | 213° |
| 2026-04-28 15:04 | 36.60238 | -86.25562 | 10040 ft | 167 kts | 213° |
| 2026-04-28 15:05 | 36.59170 | -86.26110 | 10042 ft | 167 kts | 214° |
| 2026-04-28 15:05 | 36.58095 | -86.26656 | 10045 ft | 167 kts | 214° |
| 2026-04-28 15:05 | 36.57024 | -86.27202 | 10050 ft | 167 kts | 213° |
| 2026-04-28 15:05 | 36.55954 | -86.27764 | 10049 ft | 167 kts | 214° |
| 2026-04-28 15:06 | 36.54871 | -86.28333 | 10052 ft | 167 kts | 214° |
| 2026-04-28 15:06 | 36.53799 | -86.28899 | 10054 ft | 168 kts | 214° |
| 2026-04-28 15:06 | 36.52724 | -86.29462 | 10054 ft | 167 kts | 214° |
| 2026-04-28 15:06 | 36.51659 | -86.30014 | 10052 ft | 167 kts | 213° |
| 2026-04-28 15:07 | 36.50587 | -86.30580 | 10057 ft | 168 kts | 214° |
| 2026-04-28 15:07 | 36.49509 | -86.31145 | 10060 ft | 167 kts | 214° |
| 2026-04-28 15:07 | 36.48432 | -86.31705 | 10057 ft | 168 kts | 213° |
| 2026-04-28 15:07 | 36.47348 | -86.32276 | 10058 ft | 168 kts | 213° |
| 2026-04-28 15:08 | 36.46273 | -86.32847 | 10057 ft | 168 kts | 214° |
| 2026-04-28 15:08 | 36.45205 | -86.33410 | 10060 ft | 168 kts | 214° |
| 2026-04-28 15:08 | 36.44118 | -86.33983 | 10062 ft | 168 kts | 214° |
| 2026-04-28 15:08 | 36.43034 | -86.34559 | 10061 ft | 168 kts | 213° |
| 2026-04-28 15:09 | 36.41957 | -86.35125 | 10065 ft | 168 kts | 214° |
| 2026-04-28 15:09 | 36.40886 | -86.35694 | 10066 ft | 168 kts | 213° |